Time;durP1;ratioP1;P1;durP2;ratioP2;P2;SDS_P1;SDS_P2;PMS_P1;PMS_P2;Temp;Humidity;BMP_temperature;BMP_pressure;BME280_temperature;BME280_humidity;BME280_pressure;Samples;Min_cycle;Max_cycle;Signal;HPM_P1;HPM_P2
2022/10/25 00:01:47;;;;;;;8.13;2.40;;;;;;;14.34;100.00;101078.63;5278839;28;20032;-74
2022/10/25 00:04:18;;;;;;;9.20;2.88;;;;;;;14.33;100.00;101082.25;5278510;28;20032;-74
2022/10/25 00:06:49;;;;;;;8.50;2.33;;;;;;;14.32;100.00;101080.59;5279317;28;20043;-74
2022/10/25 00:09:21;;;;;;;11.02;2.38;;;;;;;14.30;100.00;101087.81;5277761;28;20050;-74
2022/10/25 00:11:52;;;;;;;9.02;2.33;;;;;;;14.33;100.00;101098.06;5278100;28;20493;-74
2022/10/25 00:14:23;;;;;;;8.88;2.28;;;;;;;14.35;100.00;101092.63;5277142;28;20024;-74
2022/10/25 00:16:54;;;;;;;9.07;2.35;;;;;;;14.40;100.00;101089.56;5278648;28;20028;-74
2022/10/25 00:19:26;;;;;;;12.00;2.88;;;;;;;14.40;100.00;101100.13;5277228;28;20051;-74
2022/10/25 00:21:57;;;;;;;12.25;3.17;;;;;;;14.38;100.00;101076.53;5278711;28;20024;-74
2022/10/25 00:24:28;;;;;;;8.85;2.55;;;;;;;14.46;100.00;101087.16;5278813;28;20154;-74
2022/10/25 00:26:59;;;;;;;10.48;2.13;;;;;;;14.41;100.00;101091.22;5275657;28;20036;-74
2022/10/25 00:29:31;;;;;;;9.88;2.35;;;;;;;14.42;100.00;101088.44;5277520;28;20415;-75
2022/10/25 00:32:02;;;;;;;8.75;2.33;;;;;;;14.43;100.00;101097.97;5278960;28;20476;-74
2022/10/25 00:34:33;;;;;;;10.23;2.25;;;;;;;14.48;100.00;101098.38;5279040;28;20050;-74
2022/10/25 00:37:05;;;;;;;11.05;2.92;;;;;;;14.50;100.00;101099.09;5278554;28;20481;-74
2022/10/25 00:39:36;;;;;;;8.27;2.30;;;;;;;14.53;100.00;101101.44;5277414;28;20508;-74
2022/10/25 00:42:13;;;;;;;8.93;2.55;;;;;;;14.57;100.00;101101.97;5277571;28;20056;-74
2022/10/25 00:44:52;;;;;;;9.73;2.08;;;;;;;14.57;100.00;101091.41;5276525;28;20797;-74
2022/10/25 00:47:46;;;;;;;8.38;1.95;;;;;;;14.77;100.00;101097.34;5277641;28;20036;-74
2022/10/25 00:50:21;;;;;;;;;;;;;;;15.09;100.00;101107.38;5278146;28;20052;-74
2022/10/25 00:53:00;;;;;;;9.35;2.45;;;;;;;14.64;100.00;101094.28;5277228;28;19915;-74
2022/10/25 00:55:32;;;;;;;8.05;1.92;;;;;;;14.54;100.00;101091.72;5277742;28;20159;-74
2022/10/25 00:58:12;;;;;;;11.57;1.90;;;;;;;14.56;100.00;101084.50;5278805;28;20035;-74
2022/10/25 01:00:44;;;;;;;11.82;2.30;;;;;;;14.53;100.00;101105.88;5276511;28;20043;-74
2022/10/25 01:03:18;;;;;;;10.27;2.30;;;;;;;14.47;100.00;101106.44;5277643;28;20070;-74
2022/10/25 01:05:50;;;;;;;10.30;2.42;;;;;;;14.44;100.00;101110.22;5278148;28;20021;-74
2022/10/25 01:08:23;;;;;;;10.98;2.35;;;;;;;14.46;100.00;101102.13;5276286;28;20039;-74
2022/10/25 01:10:54;;;;;;;11.70;2.35;;;;;;;14.43;100.00;101099.78;5277562;28;20063;-74
2022/10/25 01:13:25;;;;;;;9.43;2.20;;;;;;;14.42;100.00;101120.06;5276693;28;20052;-74
2022/10/25 01:16:30;;;;;;;8.68;1.85;;;;;;;14.59;100.00;101116.66;5277625;28;20028;-74
2022/10/25 01:19:33;;;;;;;8.30;2.35;;;;;;;14.55;100.00;101117.94;5278004;28;20096;-74
2022/10/25 01:22:29;;;;;;;9.52;2.25;;;;;;;14.60;100.00;101120.94;5276714;28;20040;-74
2022/10/25 01:25:22;;;;;;;11.02;2.63;;;;;;;14.45;100.00;101125.03;5277672;28;20108;-74
2022/10/25 01:28:24;;;;;;;7.88;2.00;;;;;;;14.59;100.00;101127.22;5276374;28;20035;-74
2022/10/25 01:31:46;;;;;;;9.80;1.90;;;;;;;14.57;100.00;101123.88;5276445;28;20043;-75
2022/10/25 01:34:39;;;;;;;8.10;1.95;;;;;;;14.61;100.00;101129.69;5193396;28;20451;-74
2022/10/25 01:37:20;;;;;;;7.55;2.13;;;;;;;14.51;100.00;101134.22;5275077;28;20397;-74
2022/10/25 01:40:22;;;;;;;9.73;2.05;;;;;;;14.69;100.00;101134.22;5277211;28;20044;-74
2022/10/25 01:43:00;;;;;;;10.90;2.08;;;;;;;14.52;100.00;101141.97;5274124;28;20032;-74
2022/10/25 01:45:41;;;;;;;12.32;2.63;;;;;;;14.53;100.00;101127.78;5277382;28;20020;-74
2022/10/25 01:48:18;;;;;;;8.77;2.22;;;;;;;14.47;100.00;101135.44;5277476;28;20077;-74
2022/10/25 01:50:49;;;;;;;9.68;2.08;;;;;;;14.41;100.00;101130.75;5275427;28;20370;-74
2022/10/25 01:53:21;;;;;;;9.70;2.10;;;;;;;14.42;100.00;101127.16;5276514;28;20029;-74
2022/10/25 01:55:59;;;;;;;10.88;2.58;;;;;;;14.48;100.00;101134.47;5277637;28;20051;-74
2022/10/25 01:58:41;;;;;;;12.45;2.13;;;;;;;14.57;100.00;101134.44;5277366;28;20025;-74
2022/10/25 02:01:52;;;;;;;10.50;2.28;;;;;;;14.55;100.00;101138.22;5273387;28;20048;-74
2022/10/25 02:04:34;;;;;;;9.73;1.75;;;;;;;14.50;100.00;101135.16;5275274;28;20233;-74
2022/10/25 02:07:23;;;;;;;8.18;2.30;;;;;;;14.55;100.00;101135.56;5275284;28;20033;-74
2022/10/25 02:10:01;;;;;;;7.47;1.90;;;;;;;14.46;100.00;101144.31;5275965;28;20381;-75
2022/10/25 02:12:50;;;;;;;6.95;1.65;;;;;;;14.51;100.00;101150.03;5276279;28;20020;-74
2022/10/25 02:15:30;;;;;;;10.05;2.30;;;;;;;14.42;100.00;101141.16;5275504;28;20115;-73
2022/10/25 02:18:05;;;;;;;10.45;1.98;;;;;;;14.41;100.00;101146.59;5276581;28;20112;-74
2022/10/25 02:20:39;;;;;;;11.40;2.60;;;;;;;14.37;100.00;101148.69;5275965;28;20016;-74
2022/10/25 02:23:13;;;;;;;7.45;2.03;;;;;;;14.38;100.00;101144.22;5277200;28;20095;-74
2022/10/25 02:25:46;;;;;;;8.15;2.13;;;;;;;14.36;100.00;101155.75;5275209;28;20051;-74
2022/10/25 02:28:23;;;;;;;9.73;2.35;;;;;;;14.40;100.00;101153.66;5276541;28;20058;-74
2022/10/25 02:30:56;;;;;;;9.35;2.85;;;;;;;14.35;100.00;101147.97;5276840;28;20025;-74
2022/10/25 02:33:27;;;;;;;11.02;2.53;;;;;;;14.34;100.00;101152.44;5274423;28;20082;-74
2022/10/25 02:36:13;;;;;;;8.90;2.58;;;;;;;14.39;100.00;101143.25;5277041;28;20028;-74
2022/10/25 02:38:45;;;;;;;8.55;2.20;;;;;;;14.28;100.00;101158.31;5276249;28;20025;-74
2022/10/25 02:41:19;;;;;;;7.37;1.90;;;;;;;14.20;100.00;101146.81;5271813;22;20645;-77
2022/10/25 02:43:50;;;;;;;6.78;2.08;;;;;;;14.26;100.00;101167.31;5250541;28;20028;-77
2022/10/25 02:46:22;;;;;;;8.27;1.95;;;;;;;14.20;100.00;101147.63;5255385;28;20032;-77
2022/10/25 02:48:54;;;;;;;10.88;2.40;;;;;;;14.23;100.00;101160.53;5255870;28;20025;-77
2022/10/25 02:51:25;;;;;;;8.68;2.10;;;;;;;14.21;100.00;101165.13;5254112;28;20028;-76
2022/10/25 02:53:56;;;;;;;8.90;2.40;;;;;;;14.24;100.00;101164.00;5255725;28;20434;-77
2022/10/25 02:56:28;;;;;;;7.13;2.10;;;;;;;14.23;100.00;101165.81;5255647;28;20028;-77
2022/10/25 02:58:59;;;;;;;11.00;2.30;;;;;;;14.24;100.00;101170.09;5254193;28;20029;-78
2022/10/25 03:01:31;;;;;;;8.85;2.33;;;;;;;14.22;100.00;101171.22;5253290;28;20409;-77
2022/10/25 03:04:02;;;;;;;9.65;2.17;;;;;;;14.21;100.00;101180.13;5255109;28;20404;-77
2022/10/25 03:06:33;;;;;;;8.05;2.30;;;;;;;14.17;100.00;101165.53;5254883;28;20056;-76
2022/10/25 03:09:04;;;;;;;7.35;2.10;;;;;;;14.23;100.00;101175.53;5254841;28;20047;-77
2022/10/25 03:11:36;;;;;;;11.13;2.20;;;;;;;14.26;100.00;101178.69;5255240;28;20071;-76
2022/10/25 03:14:07;;;;;;;10.60;2.28;;;;;;;14.26;100.00;101180.50;5255175;28;20028;-79
2022/10/25 03:16:38;;;;;;;10.02;2.03;;;;;;;14.24;100.00;101179.81;5253954;28;20017;-77
2022/10/25 03:19:10;;;;;;;9.23;2.25;;;;;;;14.30;100.00;101177.41;5253426;28;20035;-79
2022/10/25 03:21:41;;;;;;;9.23;2.45;;;;;;;14.28;100.00;101182.03;5255325;28;20032;-77
2022/10/25 03:24:12;;;;;;;9.38;1.85;;;;;;;14.26;100.00;101191.03;5254196;28;20021;-77
2022/10/25 03:26:44;;;;;;;5.70;1.98;;;;;;;14.18;100.00;101191.78;5255166;28;20021;-77
2022/10/25 03:29:15;;;;;;;9.43;2.50;;;;;;;14.14;100.00;101186.94;5255702;28;20170;-77
2022/10/25 03:31:46;;;;;;;6.45;1.92;;;;;;;14.07;100.00;101203.31;5255202;28;20064;-77
2022/10/25 03:34:18;;;;;;;10.52;2.67;;;;;;;14.04;100.00;101208.88;5236248;28;20071;-77
2022/10/25 03:36:51;;;;;;;11.05;2.40;;;;;;;14.09;100.00;101211.06;5254841;28;20055;-77
2022/10/25 03:39:22;;;;;;;8.57;2.03;;;;;;;14.08;100.00;101212.88;5254068;28;20037;-77
2022/10/25 03:41:53;;;;;;;10.68;2.33;;;;;;;14.02;100.00;101212.63;5252728;28;20508;-77
2022/10/25 03:44:24;;;;;;;10.13;2.17;;;;;;;14.02;100.00;101224.00;5237550;28;20040;-77
2022/10/25 03:46:56;;;;;;;6.50;2.22;;;;;;;14.00;100.00;101230.38;5255833;28;20082;-78
2022/10/25 03:49:27;;;;;;;7.10;2.08;;;;;;;13.98;100.00;101224.41;5252700;28;20391;-77
2022/10/25 03:51:58;;;;;;;6.75;1.90;;;;;;;13.96;100.00;101224.56;5257470;28;20079;-77
2022/10/25 03:54:30;;;;;;;8.00;2.40;;;;;;;13.98;100.00;101230.53;5259316;28;20096;-78
2022/10/25 03:57:01;;;;;;;6.20;1.83;;;;;;;13.93;100.00;101224.00;5259397;28;20028;-77
2022/10/25 03:59:32;;;;;;;6.43;2.03;;;;;;;13.97;100.00;101234.13;5257730;28;20039;-78
2022/10/25 04:02:04;;;;;;;6.22;1.67;;;;;;;13.97;100.00;101233.28;5239674;28;20025;-76
2022/10/25 04:04:35;;;;;;;6.78;2.25;;;;;;;13.96;100.00;101236.91;5257956;28;20016;-77
2022/10/25 04:07:07;;;;;;;12.55;2.42;;;;;;;13.91;100.00;101233.88;5256648;28;20028;-78
2022/10/25 04:09:38;;;;;;;10.32;2.00;;;;;;;13.94;100.00;101236.19;5257149;28;20486;-78
2022/10/25 04:12:10;;;;;;;8.98;2.53;;;;;;;13.95;100.00;101235.25;5258285;28;20389;-77
2022/10/25 04:14:41;;;;;;;8.25;1.90;;;;;;;13.89;100.00;101241.91;5258398;28;20013;-77
2022/10/25 04:17:13;;;;;;;8.40;1.85;;;;;;;13.91;100.00;101233.88;5258529;28;20068;-77
2022/10/25 04:19:44;;;;;;;7.63;2.60;;;;;;;13.87;100.00;101236.78;5258724;28;20024;-77
2022/10/25 04:22:15;;;;;;;5.57;1.83;;;;;;;13.84;100.00;101242.34;5257852;28;20389;-78
2022/10/25 04:24:46;;;;;;;6.47;2.17;;;;;;;13.81;100.00;101231.25;5239750;28;20517;-77
2022/10/25 04:27:18;;;;;;;7.72;2.30;;;;;;;13.84;100.00;101244.97;5240488;28;20048;-77
2022/10/25 04:29:49;;;;;;;6.93;2.35;;;;;;;13.84;100.00;101250.25;5241090;28;20025;-77
2022/10/25 04:32:20;;;;;;;9.48;2.50;;;;;;;13.80;100.00;101240.97;5239937;28;20033;-77
2022/10/25 04:34:52;;;;;;;10.20;2.35;;;;;;;13.80;100.00;101251.50;5258165;28;20020;-77
2022/10/25 04:37:23;;;;;;;7.95;2.53;;;;;;;13.78;100.00;101242.88;5255701;28;20697;-76
2022/10/25 04:39:54;;;;;;;14.00;2.25;;;;;;;13.81;100.00;101247.88;5258640;28;20039;-79
2022/10/25 04:42:25;;;;;;;7.03;2.40;;;;;;;13.73;100.00;101249.56;5252941;28;20029;-77
2022/10/25 04:44:57;;;;;;;8.30;2.47;;;;;;;13.75;100.00;101253.72;5259323;28;20021;-77
2022/10/25 04:47:31;;;;;;;8.60;2.28;;;;;;;13.77;100.00;101245.69;5257920;28;20082;-77
2022/10/25 04:50:03;;;;;;;10.20;2.10;;;;;;;13.72;100.00;101245.28;5258475;28;20076;-78
2022/10/25 04:52:34;;;;;;;8.50;3.00;;;;;;;13.72;100.00;101251.38;5258710;28;20067;-78
2022/10/25 04:55:06;;;;;;;9.68;3.13;;;;;;;13.71;100.00;101251.50;5259509;28;20447;-76
2022/10/25 04:57:37;;;;;;;9.63;2.38;;;;;;;13.73;100.00;101250.38;5257475;28;20052;-80
2022/10/25 05:00:09;;;;;;;9.40;2.70;;;;;;;13.71;100.00;101249.69;5258605;28;20432;-78
2022/10/25 05:02:41;;;;;;;10.48;2.28;;;;;;;13.70;100.00;101260.38;5258029;28;20025;-80
2022/10/25 05:05:12;;;;;;;9.43;3.05;;;;;;;13.66;100.00;101259.00;5259163;28;20044;-78
2022/10/25 05:07:43;;;;;;;8.60;2.70;;;;;;;13.68;100.00;101268.44;5259385;28;20031;-77
2022/10/25 05:10:16;;;;;;;6.65;2.35;;;;;;;13.65;100.00;101265.25;5257708;28;20055;-78
2022/10/25 05:12:47;;;;;;;9.45;2.60;;;;;;;13.68;100.00;101271.06;5257763;28;20048;-77
2022/10/25 05:15:18;;;;;;;9.93;2.55;;;;;;;13.63;100.00;101266.19;5259126;28;20025;-77
2022/10/25 05:17:49;;;;;;;7.05;2.55;;;;;;;13.65;100.00;101273.97;5258053;28;20078;-77
2022/10/25 05:20:21;;;;;;;7.65;2.30;;;;;;;13.64;100.00;101277.56;5257323;28;20027;-79
2022/10/25 05:22:52;;;;;;;8.63;3.05;;;;;;;13.59;100.00;101277.97;5258073;28;20032;-79
2022/10/25 05:25:23;;;;;;;7.05;2.42;;;;;;;13.64;100.00;101285.47;5256800;28;20025;-78
2022/10/25 05:27:55;;;;;;;7.93;3.17;;;;;;;13.66;100.00;101286.16;5258120;28;20036;-79
2022/10/25 05:30:26;;;;;;;6.40;2.28;;;;;;;13.62;100.00;101290.03;5258474;28;20469;-79
2022/10/25 05:32:57;;;;;;;8.63;2.35;;;;;;;13.62;100.00;101284.78;5252790;28;20024;-77
2022/10/25 05:35:28;;;;;;;9.07;3.08;;;;;;;13.53;100.00;101282.97;5258824;28;20032;-78
2022/10/25 05:38:00;;;;;;;9.25;2.58;;;;;;;13.51;100.00;101282.28;5258053;28;20017;-77
2022/10/25 05:40:32;;;;;;;8.30;2.55;;;;;;;13.49;100.00;101294.75;5254381;28;20548;-77
2022/10/25 05:43:03;;;;;;;8.60;2.72;;;;;;;13.55;100.00;101289.75;5256228;28;20048;-79
2022/10/25 05:45:34;;;;;;;9.48;2.80;;;;;;;13.54;100.00;101296.00;5257658;28;20017;-80
2022/10/25 05:48:05;;;;;;;8.48;3.63;;;;;;;13.41;100.00;101289.31;5258368;28;20028;-77
2022/10/25 05:50:37;;;;;;;9.27;2.60;;;;;;;13.37;100.00;101288.75;5255840;28;20025;-80
2022/10/25 05:53:08;;;;;;;5.97;2.85;;;;;;;13.49;100.00;101305.28;5256525;28;20063;-78
2022/10/25 05:55:39;;;;;;;5.90;2.75;;;;;;;13.47;100.00;101307.22;5255711;28;20033;-76
2022/10/25 05:58:11;;;;;;;7.65;3.20;;;;;;;13.42;100.00;101309.44;5256740;28;20540;-76
2022/10/25 06:00:42;;;;;;;6.80;3.00;;;;;;;13.52;100.00;101315.50;5255476;28;20021;-77
2022/10/25 06:03:13;;;;;;;9.77;3.15;;;;;;;13.53;100.00;101323.28;5256410;28;20021;-77
2022/10/25 06:05:44;;;;;;;7.38;3.08;;;;;;;13.54;100.00;101324.13;5255081;28;20090;-76
2022/10/25 06:08:16;;;;;;;10.82;3.33;;;;;;;13.52;100.00;101321.59;5253973;28;20029;-76
2022/10/25 06:10:47;;;;;;;8.15;3.38;;;;;;;13.55;100.00;101325.78;5255956;28;20468;-76
2022/10/25 06:13:18;;;;;;;9.75;3.78;;;;;;;13.52;100.00;101326.88;5254750;28;20040;-75
2022/10/25 06:15:49;;;;;;;9.35;3.80;;;;;;;13.54;100.00;101329.38;5255964;28;20021;-76
2022/10/25 06:18:21;;;;;;;8.65;4.75;;;;;;;13.57;100.00;101339.66;5255976;28;20066;-76
2022/10/25 06:20:52;;;;;;;12.18;4.95;;;;;;;13.55;100.00;101336.31;5255857;28;20118;-76
2022/10/25 06:23:23;;;;;;;11.13;4.80;;;;;;;13.55;100.00;101337.13;5253866;28;20032;-76
2022/10/25 06:25:58;;;;;;;9.73;4.70;;;;;;;13.61;100.00;101341.03;5255897;28;20025;-76
2022/10/25 06:28:30;;;;;;;10.65;4.80;;;;;;;13.56;100.00;101349.34;5256522;28;20046;-76
2022/10/25 06:31:02;;;;;;;13.38;5.18;;;;;;;13.58;100.00;101357.09;5255401;28;20064;-76
2022/10/25 06:33:33;;;;;;;11.50;4.78;;;;;;;13.56;100.00;101357.25;5255553;28;20052;-76
2022/10/25 06:36:09;;;;;;;8.55;4.80;;;;;;;13.59;100.00;101366.66;5255856;28;20099;-76
2022/10/25 06:38:41;;;;;;;7.38;4.32;;;;;;;13.54;100.00;101356.53;5254590;28;20390;-76
2022/10/25 06:41:15;;;;;;;10.37;5.10;;;;;;;13.67;100.00;101360.69;5255065;28;20106;-76
2022/10/25 06:43:47;;;;;;;11.55;5.28;;;;;;;13.65;100.00;101352.94;5255816;28;20551;-76
2022/10/25 06:46:21;;;;;;;10.73;5.10;;;;;;;13.69;100.00;101359.59;5254423;28;20033;-76
2022/10/25 06:48:55;;;;;;;10.30;5.30;;;;;;;13.68;100.00;101363.22;5255920;28;20523;-76
2022/10/25 06:51:28;;;;;;;8.20;4.53;;;;;;;13.76;100.00;101373.88;5254775;28;20025;-76
2022/10/25 06:54:00;;;;;;;;;;;;;;;14.32;100.00;101372.34;5256164;28;20090;-76
2022/10/25 06:56:31;;;;;;;10.02;4.75;;;;;;;13.78;100.00;101365.84;5254190;28;19917;-77
2022/10/25 06:59:05;;;;;;;13.05;5.38;;;;;;;13.80;100.00;101377.91;5255730;28;20319;-76
2022/10/25 07:01:37;;;;;;;12.98;5.40;;;;;;;13.74;100.00;101377.63;5253575;28;20109;-76
2022/10/25 07:04:08;;;;;;;9.02;4.82;;;;;;;13.73;100.00;101383.84;5255559;28;20115;-76
2022/10/25 07:06:39;;;;;;;10.52;5.10;;;;;;;13.72;100.00;101383.03;5255175;28;20017;-76
2022/10/25 07:09:12;;;;;;;14.38;5.50;;;;;;;13.69;100.00;101382.47;5254643;28;20024;-76
2022/10/25 07:11:44;;;;;;;7.57;5.00;;;;;;;13.73;100.00;101394.41;5255391;28;20758;-76
2022/10/25 07:14:16;;;;;;;12.90;5.13;;;;;;;13.74;100.00;101399.50;5253761;28;20436;-76
2022/10/25 07:16:47;;;;;;;9.07;5.32;;;;;;;13.77;100.00;101393.97;5255205;28;20037;-76
2022/10/25 07:19:19;;;;;;;9.88;4.97;;;;;;;13.87;100.00;101396.63;5255147;28;20021;-76
2022/10/25 07:21:50;;;;;;;9.73;5.82;;;;;;;13.92;100.00;101396.22;5254525;28;20031;-76
2022/10/25 07:24:21;;;;;;;12.10;5.07;;;;;;;13.97;100.00;101405.34;5255564;28;20036;-76
2022/10/25 07:26:53;;;;;;;12.43;4.88;;;;;;;14.00;100.00;101407.72;5258789;28;20063;-76
2022/10/25 07:29:24;;;;;;;9.82;5.30;;;;;;;14.07;100.00;101410.63;5258717;28;20048;-76
2022/10/25 07:31:55;;;;;;;10.95;5.35;;;;;;;14.09;100.00;101398.13;5258540;28;20090;-76
2022/10/25 07:34:26;;;;;;;10.65;4.68;;;;;;;14.11;100.00;101415.47;5259186;28;20021;-77
2022/10/25 07:36:58;;;;;;;12.00;5.22;;;;;;;14.16;100.00;101420.31;5259703;28;20016;-76
2022/10/25 07:39:29;;;;;;;10.32;5.30;;;;;;;14.16;100.00;101416.84;5259413;28;20025;-77
2022/10/25 07:42:00;;;;;;;10.48;5.35;;;;;;;14.20;100.00;101424.34;5258623;28;20041;-76
2022/10/25 07:44:31;;;;;;;10.60;4.90;;;;;;;14.25;100.00;101427.41;5258531;28;20029;-76
2022/10/25 07:47:03;;;;;;;14.68;5.47;;;;;;;14.20;100.00;101421.69;5256124;28;20028;-76
2022/10/25 07:49:35;;;;;;;12.43;5.68;;;;;;;14.22;100.00;101418.94;5258023;28;20025;-76
2022/10/25 07:52:07;;;;;;;11.52;5.55;;;;;;;14.28;100.00;101423.63;5258508;28;20013;-76
2022/10/25 07:54:38;;;;;;;11.63;5.65;;;;;;;14.31;100.00;101428.63;5258265;28;20013;-76
2022/10/25 07:57:10;;;;;;;13.75;5.22;;;;;;;14.35;100.00;101436.13;5258430;28;20032;-78
2022/10/25 07:59:41;;;;;;;8.18;5.03;;;;;;;14.37;100.00;101438.63;5257725;28;20493;-76
2022/10/25 08:02:13;;;;;;;12.00;6.07;;;;;;;14.39;100.00;101441.94;5258554;28;20481;-76
2022/10/25 08:04:44;;;;;;;13.50;4.93;;;;;;;14.43;100.00;101432.78;5257823;28;20052;-76
2022/10/25 08:07:16;;;;;;;10.70;5.50;;;;;;;14.51;100.00;101442.69;5258596;28;20513;-76
2022/10/25 08:09:47;;;;;;;10.68;5.50;;;;;;;14.58;100.00;101451.66;5257424;28;20486;-78
2022/10/25 08:12:18;;;;;;;12.85;5.63;;;;;;;14.59;100.00;101453.34;5258087;28;20474;-76
2022/10/25 08:14:50;;;;;;;11.50;5.88;;;;;;;14.60;100.00;101450.56;5258809;28;20336;-76
2022/10/25 08:17:21;;;;;;;12.32;5.88;;;;;;;14.62;100.00;101455.69;5257312;28;20032;-76
2022/10/25 08:19:52;;;;;;;10.77;5.35;;;;;;;14.65;100.00;101449.31;5257673;28;20025;-76
2022/10/25 08:22:23;;;;;;;10.07;5.38;;;;;;;14.68;100.00;101446.38;5257505;28;20025;-76
2022/10/25 08:24:55;;;;;;;10.80;5.57;;;;;;;14.70;100.00;101450.56;5258808;28;20521;-77
2022/10/25 08:27:26;;;;;;;10.07;5.50;;;;;;;14.67;100.00;101440.28;5257112;28;20379;-76
2022/10/25 08:29:57;;;;;;;11.15;4.95;;;;;;;14.80;100.00;101453.16;5257786;28;20462;-76
2022/10/25 08:32:30;;;;;;;10.50;4.60;;;;;;;14.86;100.00;101454.41;5258383;28;20524;-77
2022/10/25 08:35:01;;;;;;;12.18;5.15;;;;;;;14.96;100.00;101455.19;5257687;28;20378;-77
2022/10/25 08:37:33;;;;;;;11.00;4.65;;;;;;;14.93;100.00;101447.59;5255131;28;20042;-76
2022/10/25 08:40:05;;;;;;;11.73;5.70;;;;;;;15.01;100.00;101453.78;5258331;28;20099;-77
2022/10/25 08:42:47;;;;;;;10.68;4.70;;;;;;;15.19;100.00;101461.78;5259432;28;20028;-77
2022/10/25 08:45:45;;;;;;;7.07;4.35;;;;;;;15.22;100.00;101461.47;5257686;28;20029;-77
2022/10/25 08:48:22;;;;;;;9.25;4.30;;;;;;;15.15;100.00;101460.41;5241510;28;20482;-77
2022/10/25 08:51:00;;;;;;;9.32;4.25;;;;;;;15.17;100.00;101463.72;5258674;28;20033;-77
2022/10/25 08:53:37;;;;;;;9.18;4.57;;;;;;;15.18;100.00;101465.38;5259091;28;20016;-77
2022/10/25 08:56:14;;;;;;;10.60;4.45;;;;;;;15.23;100.00;101463.16;5256254;28;20028;-77
2022/10/25 08:58:54;;;;;;;10.50;4.05;;;;;;;15.37;100.00;101466.28;5259209;28;20025;-77
2022/10/25 09:01:52;;;;;;;10.70;4.28;;;;;;;15.46;100.00;101481.28;5256072;28;20512;-77
2022/10/25 09:04:23;;;;;;;8.18;4.00;;;;;;;15.27;100.00;101471.63;5258687;28;20437;-77
2022/10/25 09:07:22;;;;;;;14.93;5.30;;;;;;;15.55;100.00;101475.94;5257910;28;20099;-78
2022/10/25 09:10:10;;;;;;;11.18;4.45;;;;;;;15.48;100.00;101474.03;5258321;28;20111;-77
2022/10/25 09:12:51;;;;;;;10.77;4.20;;;;;;;15.49;100.00;101488.88;5257485;28;20024;-77
2022/10/25 09:15:30;;;;;;;12.93;4.25;;;;;;;15.49;100.00;101486.22;5258783;28;20041;-77
2022/10/25 09:18:10;;;;;;;11.38;3.72;;;;;;;15.65;100.00;101493.56;5258545;28;20512;-77
2022/10/25 09:20:49;;;;;;;11.70;3.92;;;;;;;15.75;100.00;101492.53;5257509;28;20036;-77
2022/10/25 09:23:27;;;;;;;14.43;4.50;;;;;;;15.72;100.00;101495.50;5257624;28;20090;-77
2022/10/25 09:26:15;;;;;;;8.88;3.70;;;;;;;15.79;100.00;101503.63;5257337;28;20029;-77
2022/10/25 09:29:07;;;;;;;7.93;3.35;;;;;;;15.93;100.00;101495.19;5256826;28;20074;-77
2022/10/25 09:31:44;;;;;;;12.10;3.60;;;;;;;15.93;100.00;101500.50;5256327;28;20017;-77
2022/10/25 09:34:20;;;;;;;12.07;4.05;;;;;;;15.89;100.00;101500.94;5257580;28;20025;-78
2022/10/25 09:37:00;;;;;;;13.02;4.53;;;;;;;15.85;100.00;101502.22;5257808;28;20051;-77
2022/10/25 09:39:42;;;;;;;10.43;3.60;;;;;;;15.95;100.00;101506.47;5257180;28;20398;-78
2022/10/25 09:42:31;;;;;;;9.77;3.25;;;;;;;15.90;100.00;101507.88;5256933;28;20048;-77
2022/10/25 09:45:15;;;;;;;7.45;2.90;;;;;;;15.99;100.00;101513.13;5256935;28;20056;-77
2022/10/25 09:48:10;;;;;;;7.13;3.10;;;;;;;16.02;100.00;101512.81;5255114;28;20021;-78
2022/10/25 09:50:56;;;;;;;10.82;3.22;;;;;;;16.14;100.00;101510.78;5258101;28;20020;-77
2022/10/25 09:53:32;;;;;;;9.20;3.55;;;;;;;15.92;100.00;101505.94;5256289;28;20028;-77
2022/10/25 09:56:03;;;;;;;9.68;2.80;;;;;;;15.93;100.00;101515.50;5256824;28;20036;-77
2022/10/25 09:58:43;;;;;;;8.77;2.97;;;;;;;15.97;100.00;101503.66;5257154;28;20013;-77
2022/10/25 10:01:18;;;;;;;9.15;2.80;;;;;;;15.98;100.00;101515.88;5255620;28;20036;-78
2022/10/25 10:03:50;;;;;;;9.93;3.22;;;;;;;15.92;100.00;101512.03;5255828;28;20017;-77
2022/10/25 10:06:35;;;;;;;10.48;3.13;;;;;;;16.09;100.00;101520.97;5241014;28;20478;-78
2022/10/25 10:09:11;;;;;;;7.93;2.90;;;;;;;16.03;100.00;101525.06;5257017;28;20044;-77
2022/10/25 10:11:46;;;;;;;9.77;2.88;;;;;;;16.06;100.00;101529.19;5256802;28;20452;-77
2022/10/25 10:14:35;;;;;;;8.00;2.60;;;;;;;16.22;100.00;101529.38;5256557;28;20028;-77
2022/10/25 10:17:14;;;;;;;9.55;2.63;;;;;;;16.20;100.00;101527.84;5239047;28;20032;-77
2022/10/25 10:20:07;;;;;;;9.70;2.53;;;;;;;16.32;100.00;101533.75;5254950;28;20024;-77
2022/10/25 10:22:56;;;;;;;7.72;2.85;;;;;;;16.37;100.00;101532.34;5256325;28;20091;-77
2022/10/25 10:25:28;;;;;;;11.48;2.92;;;;;;;16.13;100.00;101537.34;5256078;28;20026;-77
2022/10/25 10:27:59;;;;;;;8.52;2.80;;;;;;;16.11;100.00;101537.53;5257120;28;20067;-77
2022/10/25 10:30:30;;;;;;;11.27;2.88;;;;;;;16.18;100.00;101543.06;5256470;28;20020;-78
2022/10/25 10:33:02;;;;;;;7.15;2.67;;;;;;;16.14;100.00;101539.88;5256306;28;20323;-78
2022/10/25 10:35:35;;;;;;;9.98;2.90;;;;;;;16.14;100.00;101537.22;5255827;28;20041;-78
2022/10/25 10:38:25;;;;;;;11.75;2.78;;;;;;;16.37;100.00;101542.09;5256833;28;20541;-78
2022/10/25 10:41:23;;;;;;;7.22;2.38;;;;;;;16.44;100.00;101538.69;5256310;28;20040;-78
2022/10/25 10:44:28;;;;;;;8.07;2.78;;;;;;;16.57;100.00;101553.34;5256332;28;20017;-78
2022/10/25 10:47:08;;;;;;;11.30;2.60;;;;;;;16.24;100.00;101550.38;5202874;28;20032;-77
2022/10/25 10:49:41;;;;;;;11.18;3.17;;;;;;;16.35;100.00;101538.75;5256225;28;20095;-77
2022/10/25 10:52:27;;;;;;;8.02;2.20;;;;;;;16.76;100.00;101553.19;5255629;28;20703;-78
2022/10/25 10:54:59;;;;;;;7.10;2.40;;;;;;;16.72;100.00;101547.34;5257263;28;20450;-78
2022/10/25 10:57:33;;;;;;;7.75;2.20;;;;;;;16.71;100.00;101543.03;5237403;28;20033;-77
2022/10/25 11:00:05;;;;;;;9.02;2.55;;;;;;;16.87;100.00;101536.25;5253386;28;20021;-77
2022/10/25 11:02:40;;;;;;;7.82;2.70;;;;;;;16.92;100.00;101537.44;5256068;28;20036;-77
2022/10/25 11:05:30;;;;;;;6.90;2.60;;;;;;;17.16;100.00;101539.44;5256683;28;20021;-78
2022/10/25 11:08:16;;;;;;;9.23;2.45;;;;;;;17.12;100.00;101545.16;5256308;28;20216;-77
2022/10/25 11:10:48;;;;;;;6.60;2.60;;;;;;;16.95;100.00;101545.06;5253853;28;20029;-77
2022/10/25 11:13:21;;;;;;;7.50;2.60;;;;;;;16.93;100.00;101543.53;5255500;28;20027;-77
2022/10/25 11:16:18;;;;;;;7.88;2.05;;;;;;;17.20;100.00;101546.06;5255918;28;20055;-78
2022/10/25 11:19:02;;;;;;;8.40;2.38;;;;;;;17.21;100.00;101541.59;5243248;28;20445;-77
2022/10/25 11:21:47;;;;;;;;;;;;;;;17.73;100.00;101541.53;5256469;28;20113;-78
2022/10/25 11:24:44;;;;;;;9.65;2.58;;;;;;;17.52;100.00;101534.81;5255736;28;19943;-78
2022/10/25 11:27:35;;;;;;;9.45;2.40;;;;;;;17.50;100.00;101541.25;5237817;28;20086;-77
2022/10/25 11:30:13;;;;;;;6.68;2.28;;;;;;;17.32;100.00;101545.81;5255883;28;20028;-78
2022/10/25 11:33:11;;;;;;;7.03;1.95;;;;;;;17.45;100.00;101543.53;5251800;28;20041;-77
2022/10/25 11:36:13;;;;;;;9.63;2.80;;;;;;;17.57;100.00;101541.44;5255781;28;20608;-78
2022/10/25 11:39:17;;;;;;;7.03;2.10;;;;;;;17.60;100.00;101547.25;5256560;28;20028;-78
2022/10/25 11:42:23;;;;;;;6.50;2.05;;;;;;;17.61;100.00;101542.78;5255287;28;20045;-78
2022/10/25 11:45:20;;;;;;;6.22;2.22;;;;;;;17.81;100.00;101536.28;5254455;28;20144;-78
2022/10/25 11:48:03;;;;;;;9.27;2.00;;;;;;;17.60;100.00;101535.84;5256335;28;20025;-78
2022/10/25 11:50:48;;;;;;;6.95;2.35;;;;;;;17.71;100.00;101541.66;5254401;28;20409;-77
2022/10/25 11:53:34;;;;;;;7.00;2.10;;;;;;;17.63;100.00;101539.00;5255933;28;20033;-78
2022/10/25 11:56:09;;;;;;;7.00;1.80;;;;;;;17.60;100.00;101531.34;5254959;28;20120;-77